sensor_id;sensor_type;location;lat;lon;timestamp;temperature;humidity
18450;DHT22;9354;50.194;7.690;2023-01-28T00:00:56;2.20;99.90
18450;DHT22;9354;50.194;7.690;2023-01-28T00:03:23;2.20;99.90
18450;DHT22;9354;50.194;7.690;2023-01-28T00:05:51;2.10;99.90
18450;DHT22;9354;50.194;7.690;2023-01-28T00:08:18;2.10;99.90
18450;DHT22;9354;50.194;7.690;2023-01-28T00:10:47;2.20;99.90
18450;DHT22;9354;50.194;7.690;2023-01-28T00:13:14;2.20;99.90
18450;DHT22;9354;50.194;7.690;2023-01-28T00:15:42;2.20;99.90
18450;DHT22;9354;50.194;7.690;2023-01-28T00:18:09;2.20;99.90
18450;DHT22;9354;50.194;7.690;2023-01-28T00:20:37;2.30;99.90
18450;DHT22;9354;50.194;7.690;2023-01-28T00:23:04;2.30;99.90
18450;DHT22;9354;50.194;7.690;2023-01-28T00:25:32;2.30;99.90
18450;DHT22;9354;50.194;7.690;2023-01-28T00:28:01;2.30;99.90
18450;DHT22;9354;50.194;7.690;2023-01-28T00:30:28;2.30;99.90
18450;DHT22;9354;50.194;7.690;2023-01-28T00:32:55;2.30;99.90
18450;DHT22;9354;50.194;7.690;2023-01-28T00:35:23;2.30;99.90
18450;DHT22;9354;50.194;7.690;2023-01-28T00:37:50;2.30;99.90
18450;DHT22;9354;50.194;7.690;2023-01-28T00:40:18;2.30;99.90
18450;DHT22;9354;50.194;7.690;2023-01-28T00:42:45;2.30;99.90
18450;DHT22;9354;50.194;7.690;2023-01-28T00:45:14;2.30;99.90
18450;DHT22;9354;50.194;7.690;2023-01-28T00:47:41;2.30;99.90
18450;DHT22;9354;50.194;7.690;2023-01-28T00:50:10;2.20;99.90
18450;DHT22;9354;50.194;7.690;2023-01-28T00:52:38;2.20;99.90
18450;DHT22;9354;50.194;7.690;2023-01-28T00:55:06;2.20;99.90
18450;DHT22;9354;50.194;7.690;2023-01-28T00:57:34;2.20;99.90
18450;DHT22;9354;50.194;7.690;2023-01-28T01:00:01;2.20;99.90
18450;DHT22;9354;50.194;7.690;2023-01-28T01:02:30;2.20;99.90
18450;DHT22;9354;50.194;7.690;2023-01-28T01:04:58;2.20;99.90
18450;DHT22;9354;50.194;7.690;2023-01-28T01:07:27;2.10;99.90
18450;DHT22;9354;50.194;7.690;2023-01-28T01:10:00;2.10;99.90
18450;DHT22;9354;50.194;7.690;2023-01-28T01:12:28;2.10;99.90
18450;DHT22;9354;50.194;7.690;2023-01-28T01:14:55;2.10;99.90
18450;DHT22;9354;50.194;7.690;2023-01-28T01:17:23;2.10;99.90
18450;DHT22;9354;50.194;7.690;2023-01-28T01:19:52;2.00;99.90
18450;DHT22;9354;50.194;7.690;2023-01-28T01:22:19;2.10;99.90
18450;DHT22;9354;50.194;7.690;2023-01-28T01:24:47;2.10;99.90
18450;DHT22;9354;50.194;7.690;2023-01-28T01:27:14;2.10;99.90
18450;DHT22;9354;50.194;7.690;2023-01-28T01:29:41;2.00;99.90
18450;DHT22;9354;50.194;7.690;2023-01-28T01:32:09;2.00;99.90
18450;DHT22;9354;50.194;7.690;2023-01-28T01:34:36;2.00;99.90
18450;DHT22;9354;50.194;7.690;2023-01-28T01:37:05;2.00;99.90
18450;DHT22;9354;50.194;7.690;2023-01-28T01:39:33;2.00;99.90
18450;DHT22;9354;50.194;7.690;2023-01-28T01:42:00;1.90;99.90
18450;DHT22;9354;50.194;7.690;2023-01-28T01:44:57;1.90;99.90
18450;DHT22;9354;50.194;7.690;2023-01-28T01:47:31;1.90;99.90
18450;DHT22;9354;50.194;7.690;2023-01-28T01:50:05;1.90;99.90
18450;DHT22;9354;50.194;7.690;2023-01-28T01:52:35;1.90;99.90
18450;DHT22;9354;50.194;7.690;2023-01-28T01:55:08;1.90;99.90
18450;DHT22;9354;50.194;7.690;2023-01-28T01:57:36;1.90;99.90
18450;DHT22;9354;50.194;7.690;2023-01-28T02:00:07;1.90;99.90
18450;DHT22;9354;50.194;7.690;2023-01-28T02:02:37;1.80;99.90
18450;DHT22;9354;50.194;7.690;2023-01-28T02:05:06;1.80;99.90
18450;DHT22;9354;50.194;7.690;2023-01-28T02:07:36;1.80;99.90
18450;DHT22;9354;50.194;7.690;2023-01-28T02:10:05;1.90;99.90
18450;DHT22;9354;50.194;7.690;2023-01-28T02:12:34;1.90;99.90
18450;DHT22;9354;50.194;7.690;2023-01-28T02:15:05;1.90;99.90
18450;DHT22;9354;50.194;7.690;2023-01-28T02:17:34;1.90;99.90
18450;DHT22;9354;50.194;7.690;2023-01-28T02:20:04;1.90;99.90
18450;DHT22;9354;50.194;7.690;2023-01-28T02:23:10;2.00;99.90
18450;DHT22;9354;50.194;7.690;2023-01-28T02:26:14;2.00;99.90
18450;DHT22;9354;50.194;7.690;2023-01-28T02:28:50;2.00;99.90
18450;DHT22;9354;50.194;7.690;2023-01-28T02:31:22;2.00;99.90
18450;DHT22;9354;50.194;7.690;2023-01-28T02:33:55;2.00;99.90
18450;DHT22;9354;50.194;7.690;2023-01-28T02:36:29;2.00;99.90
18450;DHT22;9354;50.194;7.690;2023-01-28T02:39:02;2.00;99.90
18450;DHT22;9354;50.194;7.690;2023-01-28T02:41:37;2.00;99.90
18450;DHT22;9354;50.194;7.690;2023-01-28T02:44:08;2.00;99.90
18450;DHT22;9354;50.194;7.690;2023-01-28T02:46:36;2.00;99.90
18450;DHT22;9354;50.194;7.690;2023-01-28T02:49:25;2.10;99.90
18450;DHT22;9354;50.194;7.690;2023-01-28T02:52:09;2.10;99.90
18450;DHT22;9354;50.194;7.690;2023-01-28T02:54:44;2.10;99.90
18450;DHT22;9354;50.194;7.690;2023-01-28T02:57:23;2.10;99.90
18450;DHT22;9354;50.194;7.690;2023-01-28T03:00:03;2.10;99.90
18450;DHT22;9354;50.194;7.690;2023-01-28T03:02:35;2.10;99.90
18450;DHT22;9354;50.194;7.690;2023-01-28T03:05:06;2.10;99.90
18450;DHT22;9354;50.194;7.690;2023-01-28T03:07:37;2.10;99.90
18450;DHT22;9354;50.194;7.690;2023-01-28T03:10:09;2.10;99.90
18450;DHT22;9354;50.194;7.690;2023-01-28T03:12:39;2.20;99.90
18450;DHT22;9354;50.194;7.690;2023-01-28T03:15:28;2.20;99.90
18450;DHT22;9354;50.194;7.690;2023-01-28T03:18:18;2.20;99.90
18450;DHT22;9354;50.194;7.690;2023-01-28T03:21:07;2.20;99.90
18450;DHT22;9354;50.194;7.690;2023-01-28T03:23:57;2.20;99.90
18450;DHT22;9354;50.194;7.690;2023-01-28T03:26:46;2.20;99.90
18450;DHT22;9354;50.194;7.690;2023-01-28T03:29:34;2.20;99.90
18450;DHT22;9354;50.194;7.690;2023-01-28T03:32:22;2.20;99.90
18450;DHT22;9354;50.194;7.690;2023-01-28T03:35:09;2.20;99.90
18450;DHT22;9354;50.194;7.690;2023-01-28T03:37:55;2.20;99.90
18450;DHT22;9354;50.194;7.690;2023-01-28T03:40:25;2.10;99.90
18450;DHT22;9354;50.194;7.690;2023-01-28T03:42:53;2.10;99.90
18450;DHT22;9354;50.194;7.690;2023-01-28T03:45:22;2.10;99.90
18450;DHT22;9354;50.194;7.690;2023-01-28T03:47:50;2.10;99.90
18450;DHT22;9354;50.194;7.690;2023-01-28T03:50:18;2.10;99.90
18450;DHT22;9354;50.194;7.690;2023-01-28T03:52:45;2.20;99.90
18450;DHT22;9354;50.194;7.690;2023-01-28T03:55:13;2.20;99.90
18450;DHT22;9354;50.194;7.690;2023-01-28T03:57:41;2.20;99.90
18450;DHT22;9354;50.194;7.690;2023-01-28T04:00:10;2.10;99.90
18450;DHT22;9354;50.194;7.690;2023-01-28T04:02:38;2.00;99.90
18450;DHT22;9354;50.194;7.690;2023-01-28T04:05:08;2.00;99.90
18450;DHT22;9354;50.194;7.690;2023-01-28T04:07:37;1.90;99.90
18450;DHT22;9354;50.194;7.690;2023-01-28T04:10:06;1.90;99.90
18450;DHT22;9354;50.194;7.690;2023-01-28T04:12:35;1.90;99.90
18450;DHT22;9354;50.194;7.690;2023-01-28T04:15:05;1.80;99.90
18450;DHT22;9354;50.194;7.690;2023-01-28T04:17:43;1.80;99.90
18450;DHT22;9354;50.194;7.690;2023-01-28T04:20:13;1.80;99.90
18450;DHT22;9354;50.194;7.690;2023-01-28T04:22:41;1.90;99.90
18450;DHT22;9354;50.194;7.690;2023-01-28T04:25:08;1.90;99.90
18450;DHT22;9354;50.194;7.690;2023-01-28T04:27:36;1.80;99.90
18450;DHT22;9354;50.194;7.690;2023-01-28T04:30:04;1.80;99.90
18450;DHT22;9354;50.194;7.690;2023-01-28T04:32:31;1.80;99.90
18450;DHT22;9354;50.194;7.690;2023-01-28T04:34:59;1.80;99.90
18450;DHT22;9354;50.194;7.690;2023-01-28T04:37:27;1.80;99.90
18450;DHT22;9354;50.194;7.690;2023-01-28T04:39:55;1.80;99.90
18450;DHT22;9354;50.194;7.690;2023-01-28T04:42:22;1.80;99.90
18450;DHT22;9354;50.194;7.690;2023-01-28T04:44:50;1.80;99.90
18450;DHT22;9354;50.194;7.690;2023-01-28T04:47:17;1.80;99.90
18450;DHT22;9354;50.194;7.690;2023-01-28T04:49:44;1.90;99.90
18450;DHT22;9354;50.194;7.690;2023-01-28T04:52:12;1.90;99.90
18450;DHT22;9354;50.194;7.690;2023-01-28T04:54:41;1.90;99.90
18450;DHT22;9354;50.194;7.690;2023-01-28T04:57:08;1.90;99.90
18450;DHT22;9354;50.194;7.690;2023-01-28T04:59:35;1.90;99.90
18450;DHT22;9354;50.194;7.690;2023-01-28T05:02:03;1.80;99.90
18450;DHT22;9354;50.194;7.690;2023-01-28T05:04:30;1.80;99.90
18450;DHT22;9354;50.194;7.690;2023-01-28T05:06:58;1.80;99.90
18450;DHT22;9354;50.194;7.690;2023-01-28T05:09:25;1.80;99.90
18450;DHT22;9354;50.194;7.690;2023-01-28T05:11:54;1.80;99.90
18450;DHT22;9354;50.194;7.690;2023-01-28T05:14:21;1.80;99.90
18450;DHT22;9354;50.194;7.690;2023-01-28T05:16:49;1.80;99.90
18450;DHT22;9354;50.194;7.690;2023-01-28T05:19:16;1.80;99.90
18450;DHT22;9354;50.194;7.690;2023-01-28T05:21:44;1.80;99.90
18450;DHT22;9354;50.194;7.690;2023-01-28T05:24:11;1.80;99.90
18450;DHT22;9354;50.194;7.690;2023-01-28T05:26:39;1.80;99.90
18450;DHT22;9354;50.194;7.690;2023-01-28T05:29:08;1.80;99.90
18450;DHT22;9354;50.194;7.690;2023-01-28T05:31:35;1.80;99.90
18450;DHT22;9354;50.194;7.690;2023-01-28T05:34:03;1.90;99.90
18450;DHT22;9354;50.194;7.690;2023-01-28T05:36:30;1.90;99.90
18450;DHT22;9354;50.194;7.690;2023-01-28T05:38:57;1.90;99.90
18450;DHT22;9354;50.194;7.690;2023-01-28T05:41:25;1.90;99.90
18450;DHT22;9354;50.194;7.690;2023-01-28T05:43:52;1.90;99.90
18450;DHT22;9354;50.194;7.690;2023-01-28T05:46:21;1.90;99.90
18450;DHT22;9354;50.194;7.690;2023-01-28T05:48:50;1.90;99.90
18450;DHT22;9354;50.194;7.690;2023-01-28T05:51:17;1.90;99.90
18450;DHT22;9354;50.194;7.690;2023-01-28T05:53:45;1.90;99.90
18450;DHT22;9354;50.194;7.690;2023-01-28T05:56:12;1.90;99.90
18450;DHT22;9354;50.194;7.690;2023-01-28T05:58:39;2.00;99.90
18450;DHT22;9354;50.194;7.690;2023-01-28T06:01:07;2.00;99.90
18450;DHT22;9354;50.194;7.690;2023-01-28T06:03:36;2.00;99.90
18450;DHT22;9354;50.194;7.690;2023-01-28T06:06:03;1.90;99.90
18450;DHT22;9354;50.194;7.690;2023-01-28T06:08:30;1.90;99.90
18450;DHT22;9354;50.194;7.690;2023-01-28T06:10:58;1.90;99.90
18450;DHT22;9354;50.194;7.690;2023-01-28T06:13:25;2.00;99.90
18450;DHT22;9354;50.194;7.690;2023-01-28T06:15:53;2.00;99.90
18450;DHT22;9354;50.194;7.690;2023-01-28T06:18:20;1.90;99.90
18450;DHT22;9354;50.194;7.690;2023-01-28T06:20:51;2.00;99.90
18450;DHT22;9354;50.194;7.690;2023-01-28T06:23:19;2.00;99.90
18450;DHT22;9354;50.194;7.690;2023-01-28T06:25:46;2.00;99.90
18450;DHT22;9354;50.194;7.690;2023-01-28T06:28:14;2.10;99.90
18450;DHT22;9354;50.194;7.690;2023-01-28T06:30:41;2.10;99.90
18450;DHT22;9354;50.194;7.690;2023-01-28T06:33:08;2.10;99.90
18450;DHT22;9354;50.194;7.690;2023-01-28T06:35:36;2.10;99.90
18450;DHT22;9354;50.194;7.690;2023-01-28T06:38:05;2.10;99.90
18450;DHT22;9354;50.194;7.690;2023-01-28T06:40:32;2.20;99.90
18450;DHT22;9354;50.194;7.690;2023-01-28T06:42:59;2.20;99.90
18450;DHT22;9354;50.194;7.690;2023-01-28T06:45:27;2.20;99.90
18450;DHT22;9354;50.194;7.690;2023-01-28T06:47:54;2.20;99.90
18450;DHT22;9354;50.194;7.690;2023-01-28T06:50:22;2.20;99.90
18450;DHT22;9354;50.194;7.690;2023-01-28T06:52:49;2.20;99.90
18450;DHT22;9354;50.194;7.690;2023-01-28T06:55:18;2.20;99.90
18450;DHT22;9354;50.194;7.690;2023-01-28T06:57:45;2.20;99.90
18450;DHT22;9354;50.194;7.690;2023-01-28T07:00:13;2.10;99.90
18450;DHT22;9354;50.194;7.690;2023-01-28T07:02:41;2.10;99.90
18450;DHT22;9354;50.194;7.690;2023-01-28T07:05:09;2.10;99.90
18450;DHT22;9354;50.194;7.690;2023-01-28T07:07:37;2.10;99.90
18450;DHT22;9354;50.194;7.690;2023-01-28T07:10:05;2.10;99.90
18450;DHT22;9354;50.194;7.690;2023-01-28T07:12:34;2.10;99.90
18450;DHT22;9354;50.194;7.690;2023-01-28T07:15:02;2.10;99.90
18450;DHT22;9354;50.194;7.690;2023-01-28T07:17:29;2.10;99.90
18450;DHT22;9354;50.194;7.690;2023-01-28T07:19:56;2.10;99.90
18450;DHT22;9354;50.194;7.690;2023-01-28T07:22:24;2.10;99.90
18450;DHT22;9354;50.194;7.690;2023-01-28T07:24:51;2.10;99.90
18450;DHT22;9354;50.194;7.690;2023-01-28T07:27:18;2.10;99.90
18450;DHT22;9354;50.194;7.690;2023-01-28T07:29:47;2.00;99.90
18450;DHT22;9354;50.194;7.690;2023-01-28T07:32:15;2.00;99.90
18450;DHT22;9354;50.194;7.690;2023-01-28T07:34:42;2.00;99.90
18450;DHT22;9354;50.194;7.690;2023-01-28T07:37:10;2.00;99.90
18450;DHT22;9354;50.194;7.690;2023-01-28T07:39:37;2.00;99.90
18450;DHT22;9354;50.194;7.690;2023-01-28T07:42:05;2.00;99.90
18450;DHT22;9354;50.194;7.690;2023-01-28T07:44:32;2.00;99.90
18450;DHT22;9354;50.194;7.690;2023-01-28T07:47:02;2.00;99.90
18450;DHT22;9354;50.194;7.690;2023-01-28T07:49:30;2.00;99.90
18450;DHT22;9354;50.194;7.690;2023-01-28T07:51:57;2.00;99.90
18450;DHT22;9354;50.194;7.690;2023-01-28T07:54:24;2.00;99.90
18450;DHT22;9354;50.194;7.690;2023-01-28T07:56:52;2.00;99.90
18450;DHT22;9354;50.194;7.690;2023-01-28T07:59:19;1.90;99.90
18450;DHT22;9354;50.194;7.690;2023-01-28T08:01:47;1.90;99.90
18450;DHT22;9354;50.194;7.690;2023-01-28T08:04:15;1.90;99.90
18450;DHT22;9354;50.194;7.690;2023-01-28T08:06:43;1.80;99.90
18450;DHT22;9354;50.194;7.690;2023-01-28T08:09:10;1.80;99.90
18450;DHT22;9354;50.194;7.690;2023-01-28T08:11:38;1.70;99.90
18450;DHT22;9354;50.194;7.690;2023-01-28T08:14:05;1.70;99.90
18450;DHT22;9354;50.194;7.690;2023-01-28T08:16:33;1.70;99.90
18450;DHT22;9354;50.194;7.690;2023-01-28T08:19:00;1.70;99.90
18450;DHT22;9354;50.194;7.690;2023-01-28T08:21:29;1.70;99.90
18450;DHT22;9354;50.194;7.690;2023-01-28T08:23:56;1.70;99.90
18450;DHT22;9354;50.194;7.690;2023-01-28T08:26:24;1.80;99.90
18450;DHT22;9354;50.194;7.690;2023-01-28T08:28:51;1.80;99.90
18450;DHT22;9354;50.194;7.690;2023-01-28T08:31:18;1.80;99.90
18450;DHT22;9354;50.194;7.690;2023-01-28T08:33:46;1.80;99.90
18450;DHT22;9354;50.194;7.690;2023-01-28T08:36:13;1.80;99.90
18450;DHT22;9354;50.194;7.690;2023-01-28T08:38:42;1.80;99.90
18450;DHT22;9354;50.194;7.690;2023-01-28T08:41:09;1.80;99.90
18450;DHT22;9354;50.194;7.690;2023-01-28T08:43:37;1.80;99.90
18450;DHT22;9354;50.194;7.690;2023-01-28T08:46:04;1.80;99.90
18450;DHT22;9354;50.194;7.690;2023-01-28T08:48:32;1.80;99.90
18450;DHT22;9354;50.194;7.690;2023-01-28T08:51:00;1.80;99.90
18450;DHT22;9354;50.194;7.690;2023-01-28T08:53:27;1.80;99.90
18450;DHT22;9354;50.194;7.690;2023-01-28T08:55:56;1.80;99.90
18450;DHT22;9354;50.194;7.690;2023-01-28T08:58:23;1.80;99.90
18450;DHT22;9354;50.194;7.690;2023-01-28T09:00:51;1.80;99.90
18450;DHT22;9354;50.194;7.690;2023-01-28T09:03:18;1.80;99.90
18450;DHT22;9354;50.194;7.690;2023-01-28T09:05:46;1.80;99.90
18450;DHT22;9354;50.194;7.690;2023-01-28T09:08:14;1.80;99.90
18450;DHT22;9354;50.194;7.690;2023-01-28T09:10:42;1.80;99.90
18450;DHT22;9354;50.194;7.690;2023-01-28T09:13:12;1.80;99.90
18450;DHT22;9354;50.194;7.690;2023-01-28T09:15:40;1.70;99.90
18450;DHT22;9354;50.194;7.690;2023-01-28T09:18:11;1.80;99.90
18450;DHT22;9354;50.194;7.690;2023-01-28T09:20:38;1.80;99.90
18450;DHT22;9354;50.194;7.690;2023-01-28T09:23:06;1.90;99.90
18450;DHT22;9354;50.194;7.690;2023-01-28T09:25:34;1.90;99.90
18450;DHT22;9354;50.194;7.690;2023-01-28T09:28:03;1.90;99.90
18450;DHT22;9354;50.194;7.690;2023-01-28T09:30:32;2.00;99.90
18450;DHT22;9354;50.194;7.690;2023-01-28T09:33:00;2.00;99.90
18450;DHT22;9354;50.194;7.690;2023-01-28T09:35:28;2.00;99.90
18450;DHT22;9354;50.194;7.690;2023-01-28T09:37:58;2.10;99.90
18450;DHT22;9354;50.194;7.690;2023-01-28T09:40:31;2.10;99.90
18450;DHT22;9354;50.194;7.690;2023-01-28T09:45:57;2.10;99.90
18450;DHT22;9354;50.194;7.690;2023-01-28T09:48:29;2.10;99.90
18450;DHT22;9354;50.194;7.690;2023-01-28T09:50:59;2.10;99.90
18450;DHT22;9354;50.194;7.690;2023-01-28T09:53:29;2.10;99.90
18450;DHT22;9354;50.194;7.690;2023-01-28T09:56:01;2.10;99.90
18450;DHT22;9354;50.194;7.690;2023-01-28T09:58:29;2.10;99.90
18450;DHT22;9354;50.194;7.690;2023-01-28T10:01:04;2.10;99.90
18450;DHT22;9354;50.194;7.690;2023-01-28T10:03:49;2.10;99.90
18450;DHT22;9354;50.194;7.690;2023-01-28T10:06:27;2.10;99.90
18450;DHT22;9354;50.194;7.690;2023-01-28T10:09:24;2.10;99.90
18450;DHT22;9354;50.194;7.690;2023-01-28T10:12:12;2.10;99.90
18450;DHT22;9354;50.194;7.690;2023-01-28T10:14:57;2.10;99.90
18450;DHT22;9354;50.194;7.690;2023-01-28T10:17:36;2.10;99.90
18450;DHT22;9354;50.194;7.690;2023-01-28T10:20:15;2.20;99.90
18450;DHT22;9354;50.194;7.690;2023-01-28T10:22:48;2.20;99.90
18450;DHT22;9354;50.194;7.690;2023-01-28T10:25:19;2.20;99.90
18450;DHT22;9354;50.194;7.690;2023-01-28T10:27:48;2.10;99.90
18450;DHT22;9354;50.194;7.690;2023-01-28T10:30:18;2.10;99.90
18450;DHT22;9354;50.194;7.690;2023-01-28T10:32:51;2.10;99.90
18450;DHT22;9354;50.194;7.690;2023-01-28T10:35:19;2.20;99.90
18450;DHT22;9354;50.194;7.690;2023-01-28T10:37:47;2.20;99.90
18450;DHT22;9354;50.194;7.690;2023-01-28T10:40:15;2.30;99.90
18450;DHT22;9354;50.194;7.690;2023-01-28T10:42:43;2.30;99.90
18450;DHT22;9354;50.194;7.690;2023-01-28T10:45:17;2.30;99.90
18450;DHT22;9354;50.194;7.690;2023-01-28T10:47:51;2.30;99.90
18450;DHT22;9354;50.194;7.690;2023-01-28T10:50:21;2.30;99.90
18450;DHT22;9354;50.194;7.690;2023-01-28T10:52:53;2.30;99.90
18450;DHT22;9354;50.194;7.690;2023-01-28T10:55:22;2.30;99.90
18450;DHT22;9354;50.194;7.690;2023-01-28T10:57:50;2.30;99.90
18450;DHT22;9354;50.194;7.690;2023-01-28T11:00:23;2.30;99.90
18450;DHT22;9354;50.194;7.690;2023-01-28T11:02:53;2.30;99.90
18450;DHT22;9354;50.194;7.690;2023-01-28T11:05:22;2.30;99.90
18450;DHT22;9354;50.194;7.690;2023-01-28T11:08:03;2.30;99.90
18450;DHT22;9354;50.194;7.690;2023-01-28T11:10:33;2.40;99.90
18450;DHT22;9354;50.194;7.690;2023-01-28T11:13:02;2.40;99.90
18450;DHT22;9354;50.194;7.690;2023-01-28T11:15:31;2.40;99.90
18450;DHT22;9354;50.194;7.690;2023-01-28T11:18:01;2.40;99.90
18450;DHT22;9354;50.194;7.690;2023-01-28T11:20:35;2.40;99.90
18450;DHT22;9354;50.194;7.690;2023-01-28T11:23:04;2.40;99.90
18450;DHT22;9354;50.194;7.690;2023-01-28T11:25:33;2.50;99.90
18450;DHT22;9354;50.194;7.690;2023-01-28T11:28:04;2.50;99.90
18450;DHT22;9354;50.194;7.690;2023-01-28T11:30:34;2.50;99.90
18450;DHT22;9354;50.194;7.690;2023-01-28T11:33:13;2.50;99.90
18450;DHT22;9354;50.194;7.690;2023-01-28T11:35:51;2.60;99.90
18450;DHT22;9354;50.194;7.690;2023-01-28T11:38:20;2.60;99.90
18450;DHT22;9354;50.194;7.690;2023-01-28T11:40:51;2.60;99.90
18450;DHT22;9354;50.194;7.690;2023-01-28T11:43:21;2.50;99.90
18450;DHT22;9354;50.194;7.690;2023-01-28T11:45:56;2.50;99.90
18450;DHT22;9354;50.194;7.690;2023-01-28T11:48:33;2.50;99.90
18450;DHT22;9354;50.194;7.690;2023-01-28T11:51:22;2.40;99.90
18450;DHT22;9354;50.194;7.690;2023-01-28T11:54:03;2.40;99.90
18450;DHT22;9354;50.194;7.690;2023-01-28T11:59:56;2.40;99.90
18450;DHT22;9354;50.194;7.690;2023-01-28T12:02:45;2.40;99.90
18450;DHT22;9354;50.194;7.690;2023-01-28T12:08:11;2.30;99.90
18450;DHT22;9354;50.194;7.690;2023-01-28T12:10:48;2.30;99.90
18450;DHT22;9354;50.194;7.690;2023-01-28T12:13:32;2.30;99.90
18450;DHT22;9354;50.194;7.690;2023-01-28T12:16:21;2.30;99.90
18450;DHT22;9354;50.194;7.690;2023-01-28T12:19:06;2.40;99.90
18450;DHT22;9354;50.194;7.690;2023-01-28T12:21:48;2.40;99.90
18450;DHT22;9354;50.194;7.690;2023-01-28T12:24:28;2.40;99.90
18450;DHT22;9354;50.194;7.690;2023-01-28T12:27:06;2.50;99.90
18450;DHT22;9354;50.194;7.690;2023-01-28T12:29:42;2.50;99.90
18450;DHT22;9354;50.194;7.690;2023-01-28T12:32:27;2.50;99.90
18450;DHT22;9354;50.194;7.690;2023-01-28T12:35:28;2.50;99.90
18450;DHT22;9354;50.194;7.690;2023-01-28T12:38:07;2.50;99.90
18450;DHT22;9354;50.194;7.690;2023-01-28T12:40:46;2.50;99.90
18450;DHT22;9354;50.194;7.690;2023-01-28T12:43:19;2.50;99.90
18450;DHT22;9354;50.194;7.690;2023-01-28T12:45:52;2.60;99.90
18450;DHT22;9354;50.194;7.690;2023-01-28T12:48:25;2.60;99.90
18450;DHT22;9354;50.194;7.690;2023-01-28T12:50:57;2.60;99.90
18450;DHT22;9354;50.194;7.690;2023-01-28T12:53:33;2.60;99.90
18450;DHT22;9354;50.194;7.690;2023-01-28T12:56:08;2.60;99.90
18450;DHT22;9354;50.194;7.690;2023-01-28T12:58:44;2.60;99.90
18450;DHT22;9354;50.194;7.690;2023-01-28T13:01:15;2.60;99.90
18450;DHT22;9354;50.194;7.690;2023-01-28T13:03:50;2.60;99.90
18450;DHT22;9354;50.194;7.690;2023-01-28T13:06:23;2.60;99.90
18450;DHT22;9354;50.194;7.690;2023-01-28T13:09:00;2.60;99.90
18450;DHT22;9354;50.194;7.690;2023-01-28T13:11:32;2.60;99.90
18450;DHT22;9354;50.194;7.690;2023-01-28T13:14:02;2.60;99.90
18450;DHT22;9354;50.194;7.690;2023-01-28T13:16:29;2.60;99.90
18450;DHT22;9354;50.194;7.690;2023-01-28T13:19:10;2.50;99.90
18450;DHT22;9354;50.194;7.690;2023-01-28T13:21:47;2.50;99.90
18450;DHT22;9354;50.194;7.690;2023-01-28T13:24:23;2.50;99.90
18450;DHT22;9354;50.194;7.690;2023-01-28T13:26:57;2.40;99.90
18450;DHT22;9354;50.194;7.690;2023-01-28T13:29:30;2.40;99.90
18450;DHT22;9354;50.194;7.690;2023-01-28T13:31:59;2.40;99.90
18450;DHT22;9354;50.194;7.690;2023-01-28T13:34:32;2.40;99.90
18450;DHT22;9354;50.194;7.690;2023-01-28T13:37:03;2.50;99.90
18450;DHT22;9354;50.194;7.690;2023-01-28T13:39:33;2.50;99.90
18450;DHT22;9354;50.194;7.690;2023-01-28T13:42:19;2.50;99.90
18450;DHT22;9354;50.194;7.690;2023-01-28T13:44:48;2.60;99.90
18450;DHT22;9354;50.194;7.690;2023-01-28T13:47:22;2.50;99.90
18450;DHT22;9354;50.194;7.690;2023-01-28T13:49:55;2.50;99.90
18450;DHT22;9354;50.194;7.690;2023-01-28T13:52:27;2.50;99.90
18450;DHT22;9354;50.194;7.690;2023-01-28T13:55:00;2.50;99.90
18450;DHT22;9354;50.194;7.690;2023-01-28T14:01:06;2.60;99.90
18450;DHT22;9354;50.194;7.690;2023-01-28T14:03:57;2.60;99.90
18450;DHT22;9354;50.194;7.690;2023-01-28T14:06:59;2.60;99.90
18450;DHT22;9354;50.194;7.690;2023-01-28T14:12:49;2.50;99.90
18450;DHT22;9354;50.194;7.690;2023-01-28T14:18:28;2.50;99.90
18450;DHT22;9354;50.194;7.690;2023-01-28T14:21:00;2.40;99.90
18450;DHT22;9354;50.194;7.690;2023-01-28T14:23:28;2.40;99.90
18450;DHT22;9354;50.194;7.690;2023-01-28T14:26:15;2.40;99.90
18450;DHT22;9354;50.194;7.690;2023-01-28T14:28:51;2.40;99.90
18450;DHT22;9354;50.194;7.690;2023-01-28T14:31:25;2.40;99.90
18450;DHT22;9354;50.194;7.690;2023-01-28T14:33:53;2.40;99.90
18450;DHT22;9354;50.194;7.690;2023-01-28T14:36:22;2.30;99.90
18450;DHT22;9354;50.194;7.690;2023-01-28T14:38:50;2.30;99.90
18450;DHT22;9354;50.194;7.690;2023-01-28T14:41:22;2.30;99.90
18450;DHT22;9354;50.194;7.690;2023-01-28T14:43:53;2.30;99.90
18450;DHT22;9354;50.194;7.690;2023-01-28T14:46:30;2.30;99.90
18450;DHT22;9354;50.194;7.690;2023-01-28T14:49:16;2.30;99.90
18450;DHT22;9354;50.194;7.690;2023-01-28T14:52:02;2.30;99.90
18450;DHT22;9354;50.194;7.690;2023-01-28T14:54:46;2.30;99.90
18450;DHT22;9354;50.194;7.690;2023-01-28T14:57:29;2.40;99.90
18450;DHT22;9354;50.194;7.690;2023-01-28T15:00:01;2.50;99.90
18450;DHT22;9354;50.194;7.690;2023-01-28T15:02:33;2.50;99.90
18450;DHT22;9354;50.194;7.690;2023-01-28T15:05:07;2.50;99.90
18450;DHT22;9354;50.194;7.690;2023-01-28T15:07:35;2.50;99.90
18450;DHT22;9354;50.194;7.690;2023-01-28T15:10:04;2.50;99.90
18450;DHT22;9354;50.194;7.690;2023-01-28T15:12:35;2.40;99.90
18450;DHT22;9354;50.194;7.690;2023-01-28T15:15:17;2.40;99.90
18450;DHT22;9354;50.194;7.690;2023-01-28T15:17:46;2.40;99.90
18450;DHT22;9354;50.194;7.690;2023-01-28T15:20:18;2.40;99.90
18450;DHT22;9354;50.194;7.690;2023-01-28T15:22:46;2.30;99.90
18450;DHT22;9354;50.194;7.690;2023-01-28T15:25:17;2.30;99.90
18450;DHT22;9354;50.194;7.690;2023-01-28T15:27:47;2.30;99.90
18450;DHT22;9354;50.194;7.690;2023-01-28T15:30:24;2.30;99.90
18450;DHT22;9354;50.194;7.690;2023-01-28T15:33:00;2.30;99.90
18450;DHT22;9354;50.194;7.690;2023-01-28T15:35:30;2.30;99.90
18450;DHT22;9354;50.194;7.690;2023-01-28T15:37:57;2.30;99.90
18450;DHT22;9354;50.194;7.690;2023-01-28T15:40:28;2.30;99.90
18450;DHT22;9354;50.194;7.690;2023-01-28T15:42:56;2.20;99.90
18450;DHT22;9354;50.194;7.690;2023-01-28T15:45:27;2.20;99.90
18450;DHT22;9354;50.194;7.690;2023-01-28T15:48:03;2.10;99.90
18450;DHT22;9354;50.194;7.690;2023-01-28T15:50:33;2.10;99.90
18450;DHT22;9354;50.194;7.690;2023-01-28T15:53:01;2.00;99.90
18450;DHT22;9354;50.194;7.690;2023-01-28T15:55:36;2.00;99.90
18450;DHT22;9354;50.194;7.690;2023-01-28T15:58:27;2.00;99.90
18450;DHT22;9354;50.194;7.690;2023-01-28T16:01:18;1.90;99.90
18450;DHT22;9354;50.194;7.690;2023-01-28T16:03:47;1.90;99.90
18450;DHT22;9354;50.194;7.690;2023-01-28T16:06:31;1.80;99.90
18450;DHT22;9354;50.194;7.690;2023-01-28T16:09:02;1.80;99.90
18450;DHT22;9354;50.194;7.690;2023-01-28T16:11:33;1.80;99.90
18450;DHT22;9354;50.194;7.690;2023-01-28T16:14:02;1.80;99.90
18450;DHT22;9354;50.194;7.690;2023-01-28T16:16:33;1.80;99.90
18450;DHT22;9354;50.194;7.690;2023-01-28T16:19:03;1.80;99.90
18450;DHT22;9354;50.194;7.690;2023-01-28T16:21:34;1.70;99.90
18450;DHT22;9354;50.194;7.690;2023-01-28T16:24:05;1.70;99.90
18450;DHT22;9354;50.194;7.690;2023-01-28T16:26:34;1.60;99.90
18450;DHT22;9354;50.194;7.690;2023-01-28T16:29:12;1.60;99.90
18450;DHT22;9354;50.194;7.690;2023-01-28T16:31:41;1.60;99.90
18450;DHT22;9354;50.194;7.690;2023-01-28T16:34:10;1.60;99.90
18450;DHT22;9354;50.194;7.690;2023-01-28T16:36:37;1.50;99.90
18450;DHT22;9354;50.194;7.690;2023-01-28T16:39:05;1.50;99.90
18450;DHT22;9354;50.194;7.690;2023-01-28T16:41:34;1.50;99.90
18450;DHT22;9354;50.194;7.690;2023-01-28T16:44:04;1.50;99.90
18450;DHT22;9354;50.194;7.690;2023-01-28T16:46:32;1.50;99.90
18450;DHT22;9354;50.194;7.690;2023-01-28T16:49:01;1.50;99.90